createdAt,value
2023-06-29T00:00:31.901Z,1187.00
2023-06-29T00:01:32.014Z,1167.00
2023-06-29T00:02:32.028Z,1131.00
2023-06-29T00:03:32.100Z,1154.00
2023-06-29T00:04:32.119Z,1171.00
2023-06-29T00:05:32.186Z,1147.00
2023-06-29T00:06:32.240Z,1175.00
2023-06-29T00:07:32.337Z,1157.00
2023-06-29T00:08:32.347Z,1140.00
2023-06-29T00:09:32.423Z,1162.00
2023-06-29T00:10:32.458Z,1160.00
2023-06-29T00:11:32.535Z,1190.00
2023-06-29T00:12:32.580Z,1120.00
2023-06-29T00:13:32.640Z,1143.00
2023-06-29T00:14:32.693Z,1156.00
2023-06-29T00:15:32.751Z,1138.00
2023-06-29T00:16:32.894Z,1127.00
2023-06-29T00:17:32.918Z,1142.00
2023-06-29T00:18:32.928Z,1110.00
2023-06-29T00:19:32.999Z,1163.00
2023-06-29T00:20:33.139Z,1164.00
2023-06-29T00:21:33.112Z,1145.00
2023-06-29T00:22:33.155Z,1149.00
2023-06-29T00:23:33.310Z,1117.00
2023-06-29T00:24:33.289Z,1133.00
2023-06-29T00:25:33.371Z,1116.00
2023-06-29T00:26:33.574Z,1161.00
2023-06-29T00:27:33.505Z,1148.00
2023-06-29T00:28:33.560Z,1159.00
2023-06-29T00:29:34.334Z,1146.00
2023-06-29T00:30:33.688Z,1163.00
2023-06-29T00:31:33.944Z,1134.00
2023-06-29T00:32:34.424Z,1168.00
2023-06-29T00:33:33.872Z,1131.00
2023-06-29T00:34:33.950Z,1146.00
2023-06-29T00:35:34.018Z,1123.00
2023-06-29T00:36:34.086Z,1123.00
2023-06-29T00:37:34.140Z,1122.00
2023-06-29T00:38:34.209Z,1144.00
2023-06-29T00:39:34.277Z,1101.00
2023-06-29T00:40:34.403Z,1126.00
2023-06-29T00:41:34.407Z,1124.00
2023-06-29T00:42:34.495Z,1136.00
2023-06-29T00:43:34.549Z,1117.00
2023-06-29T00:44:34.601Z,1121.00
2023-06-29T00:45:34.671Z,1122.00
2023-06-29T00:46:34.773Z,1123.00
2023-06-29T00:47:34.866Z,1080.00
2023-06-29T00:48:34.891Z,1132.00
2023-06-29T00:49:34.953Z,1116.00
2023-06-29T00:50:35.021Z,1137.00
2023-06-29T00:51:35.091Z,1121.00
2023-06-29T00:52:35.161Z,1126.00
2023-06-29T00:53:35.382Z,1113.00
2023-06-29T00:54:35.316Z,1143.00
2023-06-29T00:55:35.368Z,1105.00
2023-06-29T00:56:38.353Z,1114.00
2023-06-29T00:57:35.497Z,1144.00
2023-06-29T00:58:35.553Z,1122.00
2023-06-29T00:59:35.598Z,1144.00
2023-06-29T01:00:35.677Z,1095.00
2023-06-29T01:01:35.703Z,1124.00
2023-06-29T01:02:35.856Z,1131.00
2023-06-29T01:03:36.571Z,1112.00
2023-06-29T01:04:35.873Z,1105.00
2023-06-29T01:05:35.936Z,1124.00
2023-06-29T01:06:36.058Z,1147.00
2023-06-29T01:07:36.043Z,1133.00
2023-06-29T01:08:36.086Z,1106.00
2023-06-29T01:09:36.136Z,1106.00
2023-06-29T01:10:36.187Z,1111.00
2023-06-29T01:11:36.255Z,1139.00
2023-06-29T01:12:36.304Z,1131.00
2023-06-29T01:13:36.349Z,1079.00
2023-06-29T01:14:36.410Z,1136.00
2023-06-29T01:15:36.464Z,1110.00
2023-06-29T01:16:37.470Z,1097.00
2023-06-29T01:17:36.607Z,1112.00
2023-06-29T01:18:37.362Z,1114.00
2023-06-29T01:19:36.680Z,1116.00
2023-06-29T01:20:36.808Z,1105.00
2023-06-29T01:21:36.790Z,1073.00
2023-06-29T01:22:37.378Z,1124.00
2023-06-29T01:23:36.922Z,1119.00
2023-06-29T01:24:36.969Z,1096.00
2023-06-29T01:25:37.027Z,1101.00
2023-06-29T01:26:37.071Z,1092.00
2023-06-29T01:27:37.139Z,1092.00
2023-06-29T01:28:37.860Z,1099.00
2023-06-29T01:29:37.261Z,1117.00
2023-06-29T01:30:37.289Z,1075.00
2023-06-29T01:31:37.383Z,1109.00
2023-06-29T01:32:37.471Z,1115.00
2023-06-29T01:33:37.467Z,1108.00
2023-06-29T01:34:37.518Z,1093.00
2023-06-29T01:35:37.576Z,1067.00
2023-06-29T01:36:37.631Z,1124.00
2023-06-29T01:37:37.696Z,1089.00
2023-06-29T01:38:37.758Z,1113.00
2023-06-29T01:39:37.800Z,1108.00
2023-06-29T01:40:37.850Z,1110.00
2023-06-29T01:41:37.918Z,1103.00
2023-06-29T01:42:37.968Z,1118.00
2023-06-29T01:43:38.957Z,1096.00
2023-06-29T01:44:38.084Z,1074.00
2023-06-29T01:45:38.128Z,1102.00
2023-06-29T01:46:38.244Z,1123.00
2023-06-29T01:47:38.282Z,1098.00
2023-06-29T01:48:38.282Z,1093.00
2023-06-29T01:49:38.342Z,1114.00
2023-06-29T01:50:38.396Z,1069.00
2023-06-29T01:51:39.412Z,1086.00
2023-06-29T01:52:38.882Z,1072.00
2023-06-29T01:53:38.564Z,1091.00
2023-06-29T01:54:39.365Z,1102.00
2023-06-29T01:55:38.667Z,1099.00
2023-06-29T01:56:38.745Z,1090.00
2023-06-29T01:57:38.787Z,1104.00
2023-06-29T01:58:38.833Z,1052.00
2023-06-29T01:59:38.904Z,1063.00
2023-06-29T02:00:38.959Z,1109.00
2023-06-29T02:01:39.022Z,1113.00
2023-06-29T02:02:39.136Z,1091.00
2023-06-29T02:03:39.275Z,1108.00
2023-06-29T02:04:39.189Z,1086.00
2023-06-29T02:05:39.254Z,1101.00
2023-06-29T02:06:39.377Z,1098.00
2023-06-29T02:07:39.369Z,1060.00
2023-06-29T02:08:39.427Z,1098.00
2023-06-29T02:09:39.480Z,1068.00
2023-06-29T02:10:39.561Z,1077.00
2023-06-29T02:11:39.690Z,1069.00
2023-06-29T02:12:39.746Z,1097.00
2023-06-29T02:13:39.874Z,1073.00
2023-06-29T02:14:39.913Z,1100.00
2023-06-29T02:15:40.029Z,1059.00
2023-06-29T02:16:40.136Z,1076.00
2023-06-29T02:17:40.416Z,1087.00
2023-06-29T02:18:40.325Z,1085.00
2023-06-29T02:19:40.362Z,1089.00
2023-06-29T02:20:40.537Z,1088.00
2023-06-29T02:21:40.529Z,1080.00
2023-06-29T02:22:40.633Z,1071.00
2023-06-29T02:23:40.719Z,1098.00
2023-06-29T02:24:40.806Z,1089.00
2023-06-29T02:25:40.962Z,1076.00
2023-06-29T02:26:40.991Z,1087.00
2023-06-29T02:27:41.102Z,1067.00
2023-06-29T02:28:41.201Z,1083.00
2023-06-29T02:29:41.911Z,1074.00
2023-06-29T02:30:41.380Z,1075.00
2023-06-29T02:31:41.503Z,1086.00
2023-06-29T02:32:41.634Z,1060.00
2023-06-29T02:33:41.680Z,1069.00
2023-06-29T02:34:41.835Z,1070.00
2023-06-29T02:35:42.150Z,1080.00
2023-06-29T02:36:41.952Z,1072.00
2023-06-29T02:37:42.054Z,1077.00
2023-06-29T02:38:42.131Z,1063.00
2023-06-29T02:39:42.229Z,1067.00
2023-06-29T02:40:42.326Z,1084.00
2023-06-29T02:41:42.434Z,1076.00
2023-06-29T02:42:42.526Z,1090.00
2023-06-29T02:43:42.609Z,1053.00
2023-06-29T02:44:42.707Z,1073.00
2023-06-29T02:45:43.014Z,1060.00
2023-06-29T02:46:42.904Z,1054.00
2023-06-29T02:47:43.009Z,1065.00
2023-06-29T02:48:43.052Z,1070.00
2023-06-29T02:49:43.145Z,1069.00
2023-06-29T02:50:43.245Z,1067.00
2023-06-29T02:51:43.379Z,1066.00
2023-06-29T02:52:43.438Z,1069.00
2023-06-29T02:53:43.542Z,1063.00
2023-06-29T02:54:43.627Z,1066.00
2023-06-29T02:55:43.918Z,1070.00
2023-06-29T02:56:43.815Z,1052.00
2023-06-29T02:57:43.920Z,1062.00
2023-06-29T02:58:44.006Z,1054.00
2023-06-29T02:59:44.106Z,1068.00
2023-06-29T03:00:44.251Z,1059.00
2023-06-29T03:01:44.298Z,1045.00
2023-06-29T03:02:44.448Z,1057.00
2023-06-29T03:03:44.510Z,1063.00
2023-06-29T03:04:44.584Z,1058.00
2023-06-29T03:05:44.933Z,1059.00
2023-06-29T03:06:44.798Z,1063.00
2023-06-29T03:07:44.883Z,1060.00
2023-06-29T03:08:44.992Z,1059.00
2023-06-29T03:09:45.090Z,1037.00
2023-06-29T03:10:45.221Z,1048.00
2023-06-29T03:11:45.320Z,1059.00
2023-06-29T03:12:45.409Z,1042.00
2023-06-29T03:13:45.513Z,1049.00
2023-06-29T03:14:45.605Z,1057.00
2023-06-29T03:15:48.419Z,1035.00
2023-06-29T03:16:45.766Z,1061.00
2023-06-29T03:17:45.879Z,1065.00
2023-06-29T03:18:45.883Z,1053.00
2023-06-29T03:19:45.930Z,1047.00
2023-06-29T03:20:45.973Z,1056.00
2023-06-29T03:21:46.058Z,1049.00
2023-06-29T03:22:46.102Z,1053.00
2023-06-29T03:23:46.166Z,1046.00
2023-06-29T03:24:46.213Z,1050.00
2023-06-29T03:25:46.615Z,1050.00
2023-06-29T03:26:46.319Z,1049.00
2023-06-29T03:27:46.384Z,1045.00
2023-06-29T03:28:46.435Z,1056.00
2023-06-29T03:29:46.490Z,1040.00
2023-06-29T03:30:46.555Z,1043.00
2023-06-29T03:31:46.585Z,1044.00
2023-06-29T03:32:46.674Z,1046.00
2023-06-29T03:33:46.698Z,1038.00
2023-06-29T03:34:46.780Z,1046.00
2023-06-29T03:35:46.974Z,1038.00
2023-06-29T03:36:46.881Z,1039.00
2023-06-29T03:37:46.935Z,1032.00
2023-06-29T03:38:46.983Z,1036.00
2023-06-29T03:39:47.117Z,1039.00
2023-06-29T03:40:47.106Z,1030.00
2023-06-29T03:41:47.153Z,1031.00
2023-06-29T03:42:47.206Z,1041.00
2023-06-29T03:43:47.254Z,1033.00
2023-06-29T03:44:47.326Z,1030.00
2023-06-29T03:45:47.370Z,1035.00
2023-06-29T03:46:47.469Z,1032.00
2023-06-29T03:47:47.528Z,1025.00
2023-06-29T03:48:47.596Z,1031.00
2023-06-29T03:49:47.587Z,1031.00
2023-06-29T03:50:47.712Z,1024.00
2023-06-29T03:51:47.697Z,1030.00
2023-06-29T03:52:47.752Z,1036.00
2023-06-29T03:53:47.804Z,1027.00
2023-06-29T03:54:47.861Z,1026.00
2023-06-29T03:55:47.902Z,1035.00
2023-06-29T03:56:47.960Z,1032.00
2023-06-29T03:57:48.010Z,1026.00
2023-06-29T03:58:48.104Z,1026.00
2023-06-29T03:59:48.121Z,1029.00
2023-06-29T04:00:48.936Z,1026.00
2023-06-29T04:01:48.316Z,1029.00
2023-06-29T04:02:48.412Z,1025.00
2023-06-29T04:03:48.524Z,1029.00
2023-06-29T04:04:48.605Z,1023.00
2023-06-29T04:05:48.736Z,1029.00
2023-06-29T04:06:48.917Z,1028.00
2023-06-29T04:07:48.955Z,1035.00
2023-06-29T04:08:49.060Z,1025.00
2023-06-29T04:09:49.222Z,1033.00
2023-06-29T04:10:49.294Z,1016.00
2023-06-29T04:11:49.396Z,1028.00
2023-06-29T04:12:49.531Z,1026.00
2023-06-29T04:13:49.642Z,1020.00
2023-06-29T04:14:49.736Z,1014.00
2023-06-29T04:15:49.845Z,1025.00
2023-06-29T04:16:50.006Z,1021.00
2023-06-29T04:17:50.128Z,1026.00
2023-06-29T04:18:50.243Z,1022.00
2023-06-29T04:19:50.280Z,1014.00
2023-06-29T04:20:50.401Z,1027.00
2023-06-29T04:21:50.570Z,1007.00
2023-06-29T04:22:50.617Z,1026.00
2023-06-29T04:23:50.745Z,1020.00
2023-06-29T04:24:50.845Z,1017.00
2023-06-29T04:25:50.964Z,1010.00
2023-06-29T04:26:51.085Z,1013.00
2023-06-29T04:27:51.214Z,1017.00
2023-06-29T04:28:51.324Z,1005.00
2023-06-29T04:29:51.441Z,999.00
2023-06-29T04:30:51.582Z,1009.00
2023-06-29T04:31:51.681Z,1003.00
2023-06-29T04:32:51.909Z,1025.00
2023-06-29T04:33:51.931Z,1009.00
2023-06-29T04:34:52.944Z,1005.00
2023-06-29T04:35:52.169Z,1013.00
2023-06-29T04:36:52.307Z,1002.00
2023-06-29T04:37:52.413Z,1016.00
2023-06-29T04:38:52.522Z,1007.00
2023-06-29T04:39:52.651Z,1006.00
2023-06-29T04:40:52.774Z,1008.00
2023-06-29T04:41:52.899Z,1020.00
2023-06-29T04:42:53.026Z,1007.00
2023-06-29T04:43:53.147Z,1009.00
2023-06-29T04:44:53.253Z,1008.00
2023-06-29T04:45:53.394Z,1001.00
2023-06-29T04:46:53.506Z,1002.00
2023-06-29T04:47:53.627Z,1006.00
2023-06-29T04:48:53.822Z,996.00
2023-06-29T04:49:53.879Z,993.00
2023-06-29T04:50:54.061Z,998.00
2023-06-29T04:51:54.098Z,995.00
2023-06-29T04:52:54.217Z,996.00
2023-06-29T04:53:54.334Z,999.00
2023-06-29T04:54:54.959Z,988.00
2023-06-29T04:55:54.566Z,1004.00
2023-06-29T04:56:54.675Z,995.00
2023-06-29T04:57:54.818Z,1000.00
2023-06-29T04:58:54.912Z,993.00
2023-06-29T04:59:55.019Z,990.00
2023-06-29T05:00:55.196Z,987.00
2023-06-29T05:01:55.471Z,1002.00
2023-06-29T05:02:55.408Z,995.00
2023-06-29T05:03:55.501Z,984.00
2023-06-29T05:04:55.599Z,990.00
2023-06-29T05:05:55.732Z,991.00
2023-06-29T05:06:55.831Z,981.00
2023-06-29T05:07:55.929Z,982.00
2023-06-29T05:08:56.031Z,982.00
2023-06-29T05:09:56.155Z,981.00
2023-06-29T05:10:56.267Z,977.00
2023-06-29T05:11:56.369Z,979.00
2023-06-29T05:12:56.478Z,984.00
2023-06-29T05:13:56.643Z,985.00
2023-06-29T05:14:56.707Z,967.00
2023-06-29T05:15:56.828Z,979.00
2023-06-29T05:16:56.956Z,978.00
2023-06-29T05:17:57.125Z,975.00
2023-06-29T05:18:57.179Z,989.00
2023-06-29T05:19:57.307Z,1002.00
2023-06-29T05:20:57.447Z,984.00
2023-06-29T05:21:57.549Z,1002.00
2023-06-29T05:22:57.675Z,997.00
2023-06-29T05:23:57.822Z,1000.00
2023-06-29T05:24:57.921Z,1005.00
2023-06-29T05:25:58.133Z,1033.00
2023-06-29T05:26:58.174Z,1049.00
2023-06-29T05:27:58.351Z,1063.00
2023-06-29T05:29:05.666Z,1100.00
2023-06-29T05:29:59.535Z,1103.00
2023-06-29T05:30:58.633Z,1110.00
2023-06-29T05:31:58.780Z,1128.00
2023-06-29T05:32:58.830Z,1163.00
2023-06-29T05:33:58.884Z,1218.00
2023-06-29T05:34:58.978Z,1265.00
2023-06-29T05:35:59.979Z,1298.00
2023-06-29T05:37:00.149Z,1334.00
2023-06-29T05:37:59.205Z,1364.00
2023-06-29T05:38:59.274Z,1384.00
2023-06-29T05:39:59.345Z,1425.00
2023-06-29T05:41:01.876Z,1461.00
2023-06-29T05:41:59.456Z,1521.00
2023-06-29T05:42:59.540Z,1550.00
2023-06-29T05:43:59.569Z,1578.00
2023-06-29T05:44:59.620Z,1630.00
2023-06-29T05:45:59.709Z,1655.00
2023-06-29T05:46:59.723Z,1716.00
2023-06-29T05:47:59.800Z,1736.00
2023-06-29T05:48:59.827Z,1780.00
2023-06-29T05:49:59.880Z,1812.00
2023-06-29T05:50:59.934Z,1884.00
2023-06-29T05:52:00.045Z,1935.00
2023-06-29T05:53:00.039Z,1962.00
2023-06-29T05:54:00.067Z,2006.00
2023-06-29T05:55:00.132Z,2031.00
2023-06-29T05:56:00.166Z,2080.00
2023-06-29T05:57:00.286Z,2103.00
2023-06-29T05:58:00.354Z,2130.00
2023-06-29T05:59:00.988Z,2170.00
2023-06-29T06:00:00.351Z,2203.00
2023-06-29T06:01:00.427Z,2233.00
2023-06-29T06:02:00.472Z,2255.00
2023-06-29T06:03:00.607Z,2294.00
2023-06-29T06:04:00.789Z,2317.00
2023-06-29T06:05:00.637Z,2317.00
2023-06-29T06:06:00.667Z,2377.00
2023-06-29T06:07:00.738Z,2402.00
2023-06-29T06:08:00.754Z,2425.00
2023-06-29T06:09:00.864Z,2457.00
2023-06-29T06:10:00.850Z,2484.00
2023-06-29T06:11:00.900Z,2503.00
2023-06-29T06:12:00.952Z,2535.00
2023-06-29T06:13:01.000Z,2541.00
2023-06-29T06:14:01.026Z,2563.00
2023-06-29T06:15:01.156Z,2608.00
2023-06-29T06:16:01.134Z,2631.00
2023-06-29T06:17:01.181Z,2686.00
2023-06-29T06:18:01.250Z,2717.00
2023-06-29T06:19:01.997Z,2737.00
2023-06-29T06:20:01.341Z,2766.00
2023-06-29T06:21:01.388Z,2805.00
2023-06-29T06:22:01.411Z,2862.00
2023-06-29T06:23:01.464Z,2866.00
2023-06-29T06:24:01.506Z,2882.00
2023-06-29T06:25:01.579Z,2963.00
2023-06-29T06:26:01.700Z,2694.00
2023-06-29T06:27:01.810Z,2288.00
2023-06-29T06:28:01.899Z,1906.00
2023-06-29T06:29:01.960Z,1564.00
2023-06-29T06:30:02.081Z,1304.00
2023-06-29T06:31:02.235Z,1093.00
2023-06-29T06:32:02.366Z,871.00
2023-06-29T06:33:02.598Z,673.00
2023-06-29T06:34:02.561Z,624.00
2023-06-29T06:35:02.690Z,577.00
2023-06-29T06:36:02.809Z,528.00
2023-06-29T06:37:02.968Z,502.00
2023-06-29T06:38:03.098Z,500.00
2023-06-29T06:39:04.036Z,505.00
2023-06-29T06:40:03.397Z,498.00
2023-06-29T06:41:03.541Z,500.00
2023-06-29T06:42:03.687Z,498.00
2023-06-29T06:43:03.847Z,506.00
2023-06-29T06:44:03.969Z,501.00
2023-06-29T06:45:04.112Z,500.00
2023-06-29T06:46:04.288Z,500.00
2023-06-29T06:47:04.549Z,506.00
2023-06-29T06:48:04.647Z,500.00
2023-06-29T06:49:04.710Z,507.00
2023-06-29T06:50:04.876Z,506.00
2023-06-29T06:51:04.981Z,502.00
2023-06-29T06:52:05.133Z,500.00
2023-06-29T06:53:05.299Z,512.00
2023-06-29T06:54:05.457Z,506.00
2023-06-29T06:55:05.629Z,512.00
2023-06-29T06:56:05.776Z,504.00
2023-06-29T06:57:05.949Z,504.00
2023-06-29T06:58:06.092Z,516.00
2023-06-29T06:59:06.234Z,537.00
2023-06-29T07:00:06.537Z,532.00
2023-06-29T07:01:06.559Z,533.00
2023-06-29T07:02:06.661Z,542.00
2023-06-29T07:03:06.840Z,546.00
2023-06-29T07:04:06.876Z,538.00
2023-06-29T07:05:06.911Z,519.00
2023-06-29T07:06:07.031Z,535.00
2023-06-29T07:07:07.164Z,565.00
2023-06-29T07:08:07.275Z,533.00
2023-06-29T07:09:07.462Z,517.00
2023-06-29T07:10:07.512Z,503.00
2023-06-29T07:11:07.588Z,514.00
2023-06-29T07:12:07.706Z,519.00
2023-06-29T07:13:07.869Z,506.00
2023-06-29T07:14:08.005Z,500.00
2023-06-29T07:15:08.014Z,515.00
2023-06-29T07:16:08.152Z,506.00
2023-06-29T07:17:08.377Z,514.00
2023-06-29T07:18:08.451Z,547.00
2023-06-29T07:24:08.932Z,605.00
2023-06-29T07:25:08.976Z,619.00
2023-06-29T07:26:09.044Z,644.00
2023-06-29T07:27:09.119Z,713.00
2023-06-29T07:28:09.234Z,859.00
2023-06-29T07:29:09.261Z,887.00
2023-06-29T07:30:09.953Z,921.00
2023-06-29T07:31:09.410Z,933.00
2023-06-29T07:32:09.599Z,926.00
2023-06-29T07:33:09.557Z,958.00
2023-06-29T07:34:09.592Z,987.00
2023-06-29T07:35:09.634Z,1006.00
2023-06-29T07:36:09.706Z,1011.00
2023-06-29T07:37:09.771Z,1013.00
2023-06-29T07:38:09.913Z,1026.00
2023-06-29T07:39:09.904Z,1021.00
2023-06-29T07:40:09.957Z,1061.00
2023-06-29T07:41:10.113Z,1069.00
2023-06-29T07:42:10.095Z,1096.00
2023-06-29T07:43:10.140Z,1097.00
2023-06-29T07:44:10.195Z,1111.00
2023-06-29T07:45:10.265Z,1108.00
2023-06-29T07:46:11.000Z,1129.00
2023-06-29T07:47:10.480Z,1123.00
2023-06-29T07:48:10.626Z,1140.00
2023-06-29T07:49:11.034Z,1162.00
2023-06-29T07:50:10.559Z,1178.00
2023-06-29T07:51:10.622Z,1181.00
2023-06-29T07:52:11.464Z,1194.00
2023-06-29T07:53:10.795Z,1196.00
2023-06-29T07:54:10.803Z,1207.00
2023-06-29T07:55:10.891Z,1225.00
2023-06-29T07:56:10.928Z,1228.00
2023-06-29T07:59:11.116Z,1238.00
2023-06-29T08:00:11.165Z,1242.00
2023-06-29T08:01:11.265Z,1248.00
2023-06-29T08:02:11.452Z,1257.00
2023-06-29T08:03:11.429Z,1268.00
2023-06-29T08:04:11.772Z,1282.00
2023-06-29T08:07:11.699Z,1295.00
2023-06-29T08:08:12.012Z,1294.00
2023-06-29T08:09:11.737Z,1258.00
2023-06-29T08:10:11.800Z,1220.00
2023-06-29T08:11:11.858Z,1219.00
2023-06-29T08:12:11.929Z,1252.00
2023-06-29T08:13:11.967Z,1244.00
2023-06-29T08:14:12.052Z,1232.00
2023-06-29T08:15:12.188Z,1246.00
2023-06-29T08:16:12.187Z,1153.00
2023-06-29T08:17:13.978Z,1112.00
2023-06-29T08:18:12.294Z,1068.00
2023-06-29T08:19:12.439Z,1073.00
2023-06-29T08:20:12.511Z,1021.00
2023-06-29T08:21:12.494Z,1059.00
2023-06-29T08:22:12.572Z,1011.00
2023-06-29T08:23:14.166Z,995.00
2023-06-29T08:24:12.981Z,1136.00
2023-06-29T08:25:12.836Z,1158.00
2023-06-29T08:26:12.859Z,1222.00
2023-06-29T08:27:12.922Z,1310.00
2023-06-29T08:28:12.981Z,1308.00
2023-06-29T08:29:13.047Z,1356.00
2023-06-29T08:30:13.112Z,1411.00
2023-06-29T08:31:13.190Z,1466.00
2023-06-29T08:32:13.309Z,1564.00
2023-06-29T08:33:13.450Z,1627.00
2023-06-29T08:34:17.069Z,1680.00
2023-06-29T08:35:13.428Z,1759.00
2023-06-29T08:36:13.553Z,1823.00
2023-06-29T08:37:13.522Z,1879.00
2023-06-29T08:38:13.593Z,1938.00
2023-06-29T08:39:13.631Z,2009.00
2023-06-29T08:40:13.684Z,2066.00
2023-06-29T08:41:14.566Z,2131.00
2023-06-29T08:42:13.768Z,2195.00
2023-06-29T08:43:13.812Z,2232.00
2023-06-29T08:44:13.941Z,2295.00
2023-06-29T08:45:13.900Z,2354.00
2023-06-29T08:46:14.608Z,2408.00
2023-06-29T08:47:14.000Z,2457.00
2023-06-29T08:48:14.118Z,2531.00
2023-06-29T08:49:14.097Z,2572.00
2023-06-29T08:50:14.144Z,2635.00
2023-06-29T08:51:14.178Z,2692.00
2023-06-29T08:52:14.222Z,2732.00
2023-06-29T08:53:14.324Z,2798.00
2023-06-29T08:54:14.573Z,2845.00
2023-06-29T08:55:14.341Z,2898.00
2023-06-29T08:56:14.387Z,2947.00
2023-06-29T08:57:14.428Z,2987.00
2023-06-29T08:58:14.490Z,3025.00
2023-06-29T08:59:14.510Z,3053.00
2023-06-29T09:00:14.563Z,3103.00
2023-06-29T09:01:14.726Z,3120.00
2023-06-29T09:02:14.683Z,3167.00
2023-06-29T09:03:15.228Z,3204.00
2023-06-29T09:04:14.813Z,3246.00
2023-06-29T09:05:14.791Z,3276.00
2023-06-29T09:06:14.835Z,3309.00
2023-06-29T09:07:14.891Z,3367.00
2023-06-29T09:08:15.016Z,3368.00
2023-06-29T09:09:14.997Z,3404.00
2023-06-29T09:10:15.071Z,3429.00
2023-06-29T09:11:15.182Z,3465.00
2023-06-29T09:12:15.261Z,3484.00
2023-06-29T09:13:15.364Z,3503.00
2023-06-29T09:14:16.073Z,3540.00
2023-06-29T09:15:15.584Z,3542.00
2023-06-29T09:16:15.678Z,3639.00
2023-06-29T09:17:15.752Z,3704.00
2023-06-29T09:18:15.861Z,3695.00
2023-06-29T09:19:16.035Z,3404.00
2023-06-29T09:20:16.083Z,3269.00
2023-06-29T09:21:16.157Z,3078.00
2023-06-29T09:22:16.233Z,3056.00
2023-06-29T09:23:16.295Z,3080.00
2023-06-29T09:24:16.350Z,3090.00
2023-06-29T09:25:28.449Z,3065.00
2023-06-29T09:26:17.461Z,3066.00
2023-06-29T09:27:16.479Z,3072.00
2023-06-29T09:28:16.519Z,3074.00
2023-06-29T09:29:16.550Z,3072.00
2023-06-29T09:30:16.591Z,3022.00
2023-06-29T09:31:16.756Z,3031.00
2023-06-29T09:32:16.684Z,3006.00
2023-06-29T09:33:16.749Z,3018.00
2023-06-29T09:34:16.777Z,3015.00
2023-06-29T09:35:16.900Z,3040.00
2023-06-29T09:36:17.020Z,3038.00
2023-06-29T09:37:17.182Z,3031.00
2023-06-29T09:38:17.194Z,3093.00
2023-06-29T09:39:17.306Z,3085.00
2023-06-29T09:40:17.391Z,3116.00
2023-06-29T09:41:17.472Z,3130.00
2023-06-29T09:42:17.587Z,3136.00
2023-06-29T09:43:17.664Z,3133.00
2023-06-29T09:44:17.764Z,3164.00
2023-06-29T09:45:17.853Z,3196.00
2023-06-29T09:46:18.603Z,3203.00
2023-06-29T09:49:18.206Z,3292.00
2023-06-29T09:50:18.249Z,3299.00
2023-06-29T09:51:19.216Z,3311.00
2023-06-29T09:52:18.269Z,3349.00
2023-06-29T09:53:18.305Z,3406.00
2023-06-29T09:54:18.275Z,3479.00
2023-06-29T09:55:18.307Z,3469.00
2023-06-29T09:56:18.353Z,3585.00
2023-06-29T09:57:18.380Z,3741.00
2023-06-29T09:58:18.417Z,3857.00
2023-06-29T09:59:18.440Z,3911.00
2023-06-29T10:00:18.533Z,3937.00
2023-06-29T10:01:18.550Z,3853.00
2023-06-29T10:02:18.567Z,3826.00
2023-06-29T10:03:18.694Z,3819.00
2023-06-29T10:04:18.667Z,3808.00
2023-06-29T10:05:18.672Z,3822.00
2023-06-29T10:06:18.703Z,3888.00
2023-06-29T10:07:18.880Z,3851.00
2023-06-29T10:08:18.800Z,3855.00
2023-06-29T10:09:18.837Z,3840.00
2023-06-29T10:10:18.921Z,3821.00
2023-06-29T10:11:18.926Z,3855.00
2023-06-29T10:12:18.943Z,3870.00
2023-06-29T10:13:18.977Z,3829.00
2023-06-29T10:14:19.020Z,3838.00
2023-06-29T10:15:19.050Z,3796.00
2023-06-29T10:16:19.140Z,3789.00
2023-06-29T10:17:19.313Z,3795.00
2023-06-29T10:18:19.431Z,3777.00
2023-06-29T10:19:19.498Z,3781.00
2023-06-29T10:20:19.733Z,3813.00
2023-06-29T10:21:19.779Z,3788.00
2023-06-29T10:22:19.754Z,3775.00
2023-06-29T10:23:21.170Z,3785.00
2023-06-29T10:24:20.012Z,3767.00
2023-06-29T10:25:20.068Z,3760.00
2023-06-29T10:26:20.166Z,3747.00
2023-06-29T10:27:20.299Z,3757.00
2023-06-29T10:28:20.402Z,3752.00
2023-06-29T10:29:20.451Z,3767.00
2023-06-29T10:30:20.559Z,3741.00
2023-06-29T10:31:20.842Z,3748.00
2023-06-29T10:32:20.760Z,3742.00
2023-06-29T10:33:20.882Z,3722.00
2023-06-29T10:34:21.004Z,3695.00
2023-06-29T10:35:21.067Z,3699.00
2023-06-29T10:36:21.221Z,3689.00
2023-06-29T10:37:21.232Z,3710.00
2023-06-29T10:38:21.311Z,3713.00
2023-06-29T10:39:21.411Z,3708.00
2023-06-29T10:40:21.495Z,3642.00
2023-06-29T10:41:21.559Z,3662.00
2023-06-29T10:42:21.708Z,3656.00
2023-06-29T10:43:21.721Z,3685.00
2023-06-29T10:44:21.819Z,3645.00
2023-06-29T10:45:21.917Z,3646.00
2023-06-29T10:46:22.063Z,3678.00
2023-06-29T10:47:22.099Z,3676.00
2023-06-29T10:48:34.250Z,3636.00
2023-06-29T10:49:23.262Z,3637.00
2023-06-29T10:50:22.257Z,3637.00
2023-06-29T10:51:22.307Z,3596.00
2023-06-29T10:52:22.404Z,3625.00
2023-06-29T10:53:22.390Z,3633.00
2023-06-29T10:54:22.475Z,3613.00
2023-06-29T10:55:22.471Z,3615.00
2023-06-29T10:56:22.508Z,3579.00
2023-06-29T10:57:25.124Z,3619.00
2023-06-29T10:58:22.804Z,3601.00
2023-06-29T10:59:22.924Z,3585.00
2023-06-29T11:00:22.987Z,3589.00
2023-06-29T11:01:23.656Z,3587.00
2023-06-29T11:02:23.176Z,3593.00
2023-06-29T11:03:24.084Z,3555.00
2023-06-29T11:04:23.497Z,3567.00
2023-06-29T11:05:23.451Z,3574.00
2023-06-29T11:07:24.618Z,3561.00
2023-06-29T11:08:23.631Z,3565.00
2023-06-29T11:09:23.696Z,3566.00
2023-06-29T11:10:23.767Z,3554.00
2023-06-29T11:11:23.753Z,3560.00
2023-06-29T11:12:23.794Z,3549.00
2023-06-29T11:13:23.876Z,3540.00
2023-06-29T11:14:23.877Z,3525.00
2023-06-29T11:15:23.938Z,3553.00
2023-06-29T11:16:23.988Z,3540.00
2023-06-29T11:17:24.018Z,3508.00
2023-06-29T11:18:24.046Z,3500.00
2023-06-29T11:19:24.079Z,3508.00
2023-06-29T11:20:24.189Z,3499.00
2023-06-29T11:21:24.293Z,3511.00
2023-06-29T11:22:24.369Z,3496.00
2023-06-29T11:23:24.451Z,3492.00
2023-06-29T11:24:24.517Z,3499.00
2023-06-29T11:25:24.597Z,3480.00
2023-06-29T11:26:24.667Z,3444.00
2023-06-29T11:27:24.741Z,3441.00
2023-06-29T11:28:24.805Z,3471.00
2023-06-29T11:29:24.953Z,3472.00
2023-06-29T11:30:24.999Z,3449.00
2023-06-29T11:31:25.124Z,3428.00
2023-06-29T11:32:25.221Z,3440.00
2023-06-29T11:33:34.288Z,3429.00
2023-06-29T11:34:26.293Z,3431.00
2023-06-29T11:35:25.363Z,3432.00
2023-06-29T11:36:25.376Z,3437.00
2023-06-29T11:37:25.420Z,3438.00
2023-06-29T11:38:25.545Z,3400.00
2023-06-29T11:39:25.505Z,3409.00
2023-06-29T11:40:25.544Z,3414.00
2023-06-29T11:41:25.586Z,3380.00
2023-06-29T11:42:25.767Z,3400.00
2023-06-29T11:44:25.913Z,3380.00
2023-06-29T11:45:26.087Z,3386.00
2023-06-29T11:46:26.173Z,3391.00
2023-06-29T11:47:33.256Z,3361.00
2023-06-29T11:48:27.291Z,3362.00
2023-06-29T11:49:26.329Z,3367.00
2023-06-29T11:50:26.400Z,3365.00
2023-06-29T11:51:26.433Z,3363.00
2023-06-29T11:52:26.463Z,3356.00
2023-06-29T11:53:26.536Z,3343.00
2023-06-29T11:54:26.549Z,3349.00
2023-06-29T11:55:26.598Z,3337.00
2023-06-29T11:56:26.654Z,3324.00
2023-06-29T11:57:26.748Z,3325.00
2023-06-29T11:58:26.845Z,3339.00
2023-06-29T11:59:27.005Z,3294.00
2023-06-29T12:00:27.066Z,3307.00
2023-06-29T12:02:27.330Z,3291.00
2023-06-29T12:03:27.512Z,3304.00
2023-06-29T12:04:27.654Z,3318.00
2023-06-29T12:05:27.580Z,3301.00
2023-06-29T12:06:27.690Z,3277.00
2023-06-29T12:07:27.925Z,3274.00
2023-06-29T12:08:27.980Z,3276.00
2023-06-29T12:09:27.987Z,3269.00
2023-06-29T12:10:28.708Z,3283.00
2023-06-29T12:11:28.203Z,3236.00
2023-06-29T12:12:28.301Z,3233.00
2023-06-29T12:13:28.415Z,3246.00
2023-06-29T12:14:28.573Z,3268.00
2023-06-29T12:15:28.629Z,3228.00
2023-06-29T12:18:28.906Z,3243.00
2023-06-29T12:19:29.071Z,3239.00
2023-06-29T12:20:29.748Z,3225.00
2023-06-29T12:21:29.302Z,3240.00
2023-06-29T12:22:29.017Z,3247.00
2023-06-29T12:23:29.069Z,3217.00
2023-06-29T12:24:29.906Z,3206.00
2023-06-29T12:25:29.150Z,3206.00